Time;durP1;ratioP1;P1;durP2;ratioP2;P2;SDS_P1;SDS_P2;PMS_P1;PMS_P2;Temp;Humidity;BMP_temperature;BMP_pressure;BME280_temperature;BME280_humidity;BME280_pressure;Samples;Min_cycle;Max_cycle;Signal;HPM_P1;HPM_P2
2023/12/03 00:02:14;;;;;;;34.20;16.80;;;;;;;0.94;67.37;98371.23;234314;215;138875;-59
2023/12/03 00:07:18;;;;;;;33.80;17.20;;;;;;;0.85;67.08;98383.20;234260;215;136979;-57
2023/12/03 00:12:21;;;;;;;32.40;16.70;;;;;;;0.73;67.25;98389.57;234238;215;148753;-59
2023/12/03 00:17:25;;;;;;;35.30;16.80;;;;;;;0.61;67.26;98391.86;234498;215;139879;-57
2023/12/03 00:22:29;;;;;;;29.50;15.40;;;;;;;0.53;67.47;98406.24;234421;215;137630;-57
2023/12/03 00:27:32;;;;;;;31.50;16.80;;;;;;;0.50;67.38;98412.12;234308;215;147488;-56
2023/12/03 00:32:36;;;;;;;27.80;15.30;;;;;;;0.45;67.61;98412.77;234395;215;138639;-58
2023/12/03 00:37:40;;;;;;;30.50;15.60;;;;;;;0.44;67.72;98423.48;234522;215;137841;-57
2023/12/03 00:42:43;;;;;;;29.00;15.30;;;;;;;0.41;67.68;98441.89;234378;215;147462;-57
2023/12/03 00:47:46;;;;;;;28.30;15.30;;;;;;;0.38;67.88;98456.29;234428;215;139309;-59
2023/12/03 00:52:50;;;;;;;30.60;15.30;;;;;;;0.38;67.94;98471.82;234311;215;136713;-57
2023/12/03 00:57:53;;;;;;;26.50;13.10;;;;;;;0.43;68.28;98487.70;234267;215;148371;-58
2023/12/03 01:02:56;;;;;;;23.70;14.20;;;;;;;0.52;68.04;98485.52;234330;215;138860;-56
2023/12/03 01:08:00;;;;;;;25.70;13.90;;;;;;;0.62;68.11;98493.94;234401;215;137016;-57
2023/12/03 01:13:03;;;;;;;26.50;13.90;;;;;;;0.65;67.97;98507.47;234270;215;147632;-56
2023/12/03 01:18:07;;;;;;;23.40;13.10;;;;;;;0.71;67.88;98519.34;234405;215;139384;-57
2023/12/03 01:23:10;;;;;;;24.30;12.50;;;;;;;0.68;67.65;98511.58;234507;215;136987;-59
2023/12/03 01:28:16;;;;;;;25.00;13.80;;;;;;;0.69;67.62;98519.06;234265;215;147586;-57
2023/12/03 01:33:19;;;;;;;;;;;;;;;0.68;67.60;98523.09;234362;215;138831;-58
2023/12/03 01:38:22;;;;;;;25.40;14.30;;;;;;;0.61;67.83;98532.36;234370;215;132712;-58
2023/12/03 01:43:26;;;;;;;30.30;15.00;;;;;;;0.51;68.19;98535.48;234446;215;147618;-57
2023/12/03 01:48:29;;;;;;;26.10;14.60;;;;;;;0.49;68.36;98537.43;234267;215;138793;-57
2023/12/03 01:53:33;;;;;;;33.60;16.50;;;;;;;0.47;68.56;98539.77;234495;215;136933;-57
2023/12/03 01:58:36;;;;;;;30.30;16.30;;;;;;;0.52;68.71;98541.20;234362;215;146753;-56
2023/12/03 02:03:39;;;;;;;33.70;17.50;;;;;;;0.58;68.69;98554.30;234268;215;139318;-57
2023/12/03 02:08:43;;;;;;;35.60;18.20;;;;;;;0.61;68.51;98566.06;234372;215;137377;-58
2023/12/03 02:13:47;;;;;;;38.00;18.80;;;;;;;0.66;68.47;98571.32;234336;215;147459;-56
2023/12/03 02:18:50;;;;;;;40.10;19.80;;;;;;;0.76;68.34;98579.73;234363;215;139685;-56
2023/12/03 02:23:54;;;;;;;41.20;21.50;;;;;;;0.86;68.00;98594.66;234530;215;136754;-56
2023/12/03 02:28:57;;;;;;;48.50;22.90;;;;;;;0.90;68.08;98599.07;234390;215;147685;-57
2023/12/03 02:34:11;;;;;;;39.70;21.40;;;;;;;0.97;67.94;98607.77;234283;215;139031;-58
2023/12/03 02:39:14;;;;;;;48.20;24.40;;;;;;;0.99;67.75;98626.21;234275;215;137716;-58
2023/12/03 02:44:17;;;;;;;47.90;24.20;;;;;;;0.95;67.93;98637.51;234324;215;147668;-58
2023/12/03 02:49:20;;;;;;;47.70;24.70;;;;;;;0.91;67.95;98650.89;234402;215;139599;-58
2023/12/03 02:54:23;;;;;;;51.30;25.80;;;;;;;0.88;68.09;98661.48;234375;215;136548;-57
2023/12/03 02:59:26;;;;;;;50.80;27.00;;;;;;;0.83;68.10;98669.65;234414;215;147553;-59
2023/12/03 03:04:30;;;;;;;56.20;28.70;;;;;;;0.80;68.19;98681.09;234281;215;137913;-59
2023/12/03 03:09:33;;;;;;;59.80;30.10;;;;;;;0.72;68.44;98689.15;234283;215;137479;-58
2023/12/03 03:14:36;;;;;;;56.40;29.40;;;;;;;0.68;68.66;98692.58;234407;215;148265;-55
2023/12/03 03:19:43;;;;;;;46.20;25.00;;;;;;;0.72;68.39;98698.23;234322;215;139040;-57
2023/12/03 03:24:47;;;;;;;47.50;27.50;;;;;;;0.63;68.18;98701.30;234370;215;137477;-57
2023/12/03 03:29:50;;;;;;;43.30;22.90;;;;;;;0.57;68.21;98712.96;234462;215;148247;-57
2023/12/03 03:34:53;;;;;;;40.50;24.00;;;;;;;0.53;67.82;98719.89;234312;215;138955;-59
2023/12/03 03:39:56;;;;;;;34.70;21.00;;;;;;;0.42;67.59;98733.07;234372;215;138221;-60
2023/12/03 03:44:59;;;;;;;36.00;21.50;;;;;;;0.40;67.62;98741.68;234369;215;147894;-60
2023/12/03 03:50:04;;;;;;;36.00;20.90;;;;;;;0.36;67.63;98747.73;234194;216;139372;-59
2023/12/03 03:55:07;;;;;;;34.10;20.10;;;;;;;0.29;67.74;98756.27;234388;215;137241;-60
2023/12/03 04:00:11;;;;;;;26.50;16.80;;;;;;;0.26;67.76;98763.69;234327;215;149721;-62
2023/12/03 04:05:14;;;;;;;26.80;17.30;;;;;;;0.12;67.77;98766.46;234527;215;139932;-65
2023/12/03 04:10:17;;;;;;;27.50;17.20;;;;;;;0.04;68.02;98766.48;234404;215;137009;-60
2023/12/03 04:15:21;;;;;;;24.20;14.50;;;;;;;0.03;68.42;98764.42;234358;215;147589;-62
2023/12/03 04:20:24;;;;;;;21.50;13.30;;;;;;;0.01;68.25;98768.65;234372;215;140231;-63
2023/12/03 04:25:28;;;;;;;21.90;13.10;;;;;;;-0.12;68.33;98767.91;234419;215;137480;-62
2023/12/03 04:30:31;;;;;;;21.70;12.70;;;;;;;-0.19;68.43;98774.00;234398;215;147503;-62
2023/12/03 04:35:35;;;;;;;17.90;12.30;;;;;;;-0.23;68.53;98775.65;234544;215;139444;-60
2023/12/03 04:40:38;;;;;;;18.70;12.00;;;;;;;-0.20;68.51;98783.44;234400;215;138806;-61
2023/12/03 04:45:41;;;;;;;16.80;11.30;;;;;;;-0.11;68.35;98786.73;234269;214;147645;-61
2023/12/03 04:50:44;;;;;;;17.00;11.10;;;;;;;0.00;67.95;98792.56;234301;215;140444;-60
2023/12/03 04:55:48;;;;;;;18.00;11.50;;;;;;;0.07;67.66;98797.28;234363;215;137714;-60
2023/12/03 05:00:52;;;;;;;18.50;11.80;;;;;;;0.10;67.49;98802.45;234171;215;147576;-62
2023/12/03 05:05:56;;;;;;;17.30;10.60;;;;;;;0.15;67.29;98812.80;234489;215;139326;-63
2023/12/03 05:11:04;;;;;;;15.50;10.00;;;;;;;0.17;66.88;98834.36;234413;215;136967;-66
2023/12/03 05:16:07;;;;;;;14.80;9.70;;;;;;;0.13;66.70;98844.92;234299;215;149055;-57
2023/12/03 05:21:11;;;;;;;13.80;8.80;;;;;;;0.10;66.68;98851.64;234248;214;140112;-56
2023/12/03 05:26:14;;;;;;;12.60;9.40;;;;;;;0.06;66.64;98851.89;234316;215;137154;-59
2023/12/03 05:31:17;;;;;;;13.10;9.10;;;;;;;-0.00;66.55;98861.61;234421;215;148554;-57
2023/12/03 05:36:23;;;;;;;13.80;8.60;;;;;;;-0.07;66.60;98873.64;234354;215;138678;-59
2023/12/03 05:41:26;;;;;;;12.60;8.60;;;;;;;-0.11;66.75;98881.20;234469;215;137628;-61
2023/12/03 05:46:30;;;;;;;14.60;9.10;;;;;;;-0.15;66.92;98883.56;234317;215;147508;-57
2023/12/03 05:51:33;;;;;;;13.60;9.60;;;;;;;-0.23;67.10;98894.71;234272;215;139192;-60
2023/12/03 05:56:36;;;;;;;15.50;9.70;;;;;;;-0.25;67.34;98897.20;234356;215;137453;-58
2023/12/03 06:01:39;;;;;;;14.50;10.00;;;;;;;-0.26;67.38;98888.34;234399;215;149125;-57
2023/12/03 06:06:43;;;;;;;15.90;9.80;;;;;;;-0.32;67.64;98894.04;234440;215;138730;-58
2023/12/03 06:11:46;;;;;;;14.60;10.20;;;;;;;-0.34;67.81;98899.48;234414;215;136774;-58
2023/12/03 06:16:49;;;;;;;13.50;8.30;;;;;;;-0.33;67.79;98893.02;234352;215;147576;-58
2023/12/03 06:21:52;;;;;;;14.20;9.50;;;;;;;-0.31;67.71;98903.95;234316;215;138754;-57
2023/12/03 06:26:56;;;;;;;13.50;9.20;;;;;;;-0.21;67.73;98910.37;234358;215;136728;-57
2023/12/03 06:31:59;;;;;;;12.10;8.50;;;;;;;-0.23;67.52;98906.56;234280;215;147658;-59
2023/12/03 06:37:04;;;;;;;17.10;9.30;;;;;;;-0.25;67.63;98906.25;234291;215;139247;-58
2023/12/03 06:42:07;;;;;;;11.80;7.80;;;;;;;-0.27;67.89;98913.80;234495;215;137554;-57
2023/12/03 06:47:12;;;;;;;14.60;8.30;;;;;;;-0.27;67.99;98922.34;234357;215;149658;-59
2023/12/03 06:52:15;;;;;;;15.80;8.50;;;;;;;-0.21;68.02;98927.11;234273;215;139434;-59
2023/12/03 06:57:19;;;;;;;13.20;8.70;;;;;;;-0.23;68.30;98929.77;234466;215;137436;-57
2023/12/03 07:02:22;;;;;;;11.10;7.90;;;;;;;-0.20;68.16;98937.89;234311;215;147528;-58
2023/12/03 07:07:25;;;;;;;13.50;7.90;;;;;;;-0.26;68.32;98943.07;234102;215;139118;-56
2023/12/03 07:12:30;;;;;;;14.50;8.30;;;;;;;-0.26;68.57;98952.30;234247;215;137233;-55
2023/12/03 07:17:33;;;;;;;11.30;7.70;;;;;;;-0.22;68.54;98961.30;234484;215;148480;-55
2023/12/03 07:22:37;;;;;;;11.30;7.50;;;;;;;-0.22;68.75;98967.05;234246;215;137982;-54
2023/12/03 07:27:40;;;;;;;13.10;8.20;;;;;;;-0.14;68.66;98978.38;234054;215;137724;-56
2023/12/03 07:32:44;;;;;;;10.80;7.30;;;;;;;-0.06;68.76;98985.20;234303;215;148382;-58
2023/12/03 07:37:47;;;;;;;11.60;7.60;;;;;;;0.06;68.69;98988.80;234389;212;139349;-57
2023/12/03 07:42:50;;;;;;;11.30;7.20;;;;;;;0.13;68.65;98986.91;234356;215;136795;-56
2023/12/03 07:47:53;;;;;;;13.00;7.60;;;;;;;0.14;68.44;98987.75;234423;215;148511;-58
2023/12/03 07:52:56;;;;;;;12.60;7.60;;;;;;;0.23;68.48;98988.27;234229;215;138817;-57
2023/12/03 07:57:59;;;;;;;14.60;7.30;;;;;;;0.26;68.43;98992.92;234426;215;137226;-59
2023/12/03 08:03:03;;;;;;;19.40;12.00;;;;;;;0.31;68.57;99001.71;234286;213;147772;-59
2023/12/03 08:08:06;;;;;;;11.90;7.70;;;;;;;0.45;69.17;99005.42;234201;215;138878;-59
2023/12/03 08:13:10;;;;;;;11.20;8.10;;;;;;;0.45;68.30;99015.54;234177;215;136431;-58
2023/12/03 08:18:13;;;;;;;12.30;7.90;;;;;;;0.34;68.46;99017.36;234260;215;147643;-58
2023/12/03 08:23:17;;;;;;;28.10;19.00;;;;;;;0.30;69.66;99023.88;234284;208;139173;-59
2023/12/03 08:28:20;;;;;;;11.90;7.90;;;;;;;0.34;68.97;99025.37;233874;213;137194;-58
2023/12/03 08:33:23;;;;;;;15.40;8.50;;;;;;;0.42;68.74;99030.98;234284;216;147505;-58
2023/12/03 08:38:27;;;;;;;13.70;8.10;;;;;;;0.54;68.52;99045.03;234150;215;140054;-59
2023/12/03 08:43:30;;;;;;;13.10;7.80;;;;;;;0.62;67.96;99054.63;234229;214;136507;-59
2023/12/03 08:48:33;;;;;;;14.70;7.70;;;;;;;0.67;67.87;99068.48;234154;215;147522;-59
2023/12/03 08:53:36;;;;;;;15.80;7.90;;;;;;;0.75;67.39;99077.05;234144;208;139842;-59
2023/12/03 08:58:40;;;;;;;15.50;7.60;;;;;;;0.67;67.52;99081.22;234019;216;137444;-59
2023/12/03 09:03:43;;;;;;;12.40;7.40;;;;;;;0.61;67.68;99093.41;234202;215;147693;-59
2023/12/03 09:08:47;;;;;;;155.50;96.30;;;;;;;0.72;68.34;99099.98;234210;216;138592;-58
2023/12/03 09:13:50;;;;;;;17.80;10.30;;;;;;;0.92;68.33;99101.81;234305;216;137625;-59
2023/12/03 09:18:53;;;;;;;15.20;8.90;;;;;;;0.96;67.92;99108.71;234229;215;147683;-58
2023/12/03 09:23:57;;;;;;;15.10;9.20;;;;;;;0.91;68.00;99111.61;234318;214;138659;-64
2023/12/03 09:29:00;;;;;;;13.40;8.90;;;;;;;0.87;68.29;99115.89;234220;216;136288;-63
2023/12/03 09:34:04;;;;;;;371.40;225.80;;;;;;;0.87;68.62;99117.45;234190;216;149017;-47
2023/12/03 09:39:07;;;;;;;19.20;10.20;;;;;;;0.98;69.08;99122.65;234273;214;138755;-61
2023/12/03 09:44:31;;;;;;;15.70;9.50;;;;;;;1.07;68.29;99123.49;234345;215;141017;-60
2023/12/03 09:49:37;;;;;;;13.20;8.20;;;;;;;1.14;68.23;99124.73;234257;216;148106;-63
2023/12/03 09:54:44;;;;;;;13.30;8.90;;;;;;;1.22;68.24;99126.29;234230;216;138616;-61
2023/12/03 09:59:49;;;;;;;14.40;9.10;;;;;;;1.29;68.01;99130.52;234401;215;137064;-60
2023/12/03 10:04:52;;;;;;;14.80;9.00;;;;;;;1.37;68.20;99131.38;234132;215;149907;-60
2023/12/03 10:09:58;;;;;;;36.70;23.70;;;;;;;1.45;68.38;99129.09;234189;215;138815;-62
2023/12/03 10:15:04;;;;;;;21.20;12.90;;;;;;;1.57;68.85;99139.27;234099;216;137037;-61
2023/12/03 10:20:24;;;;;;;14.20;9.90;;;;;;;1.59;67.56;99139.75;234133;208;148827;-61
2023/12/03 10:25:33;;;;;;;15.20;9.30;;;;;;;1.47;67.31;99145.66;233996;216;139564;-60
2023/12/03 10:30:36;;;;;;;16.60;9.20;;;;;;;1.38;67.45;99151.43;234089;214;136530;-64
2023/12/03 10:35:40;;;;;;;12.60;8.20;;;;;;;1.32;68.01;99154.20;234333;213;147729;-68
2023/12/03 10:40:46;;;;;;;13.00;9.20;;;;;;;1.30;67.96;99159.50;234171;209;138672;-66
2023/12/03 10:45:53;;;;;;;12.80;8.40;;;;;;;1.31;68.05;99164.70;233800;216;136866;-69
2023/12/03 10:51:04;;;;;;;13.20;8.50;;;;;;;1.32;67.92;99172.38;234192;212;149881;-66
2023/12/03 10:56:08;;;;;;;13.80;8.40;;;;;;;1.35;67.87;99174.59;234152;215;139402;-62
2023/12/03 11:01:19;;;;;;;12.90;7.80;;;;;;;1.39;67.74;99183.23;234190;213;137615;-67
2023/12/03 11:06:23;;;;;;;74.10;44.70;;;;;;;1.44;67.89;99187.50;234173;214;148529;-62
2023/12/03 11:11:29;;;;;;;15.30;10.60;;;;;;;1.54;67.92;99195.66;234407;214;139908;-69
2023/12/03 11:16:47;;;;;;;;;;;;;;;1.49;67.67;99204.33;234306;213;137327;-64
2023/12/03 11:22:11;;;;;;;12.00;8.60;;;;;;;1.49;67.94;99211.84;234309;213;147854;-67
2023/12/03 11:27:23;;;;;;;13.90;9.30;;;;;;;1.38;68.12;99217.67;234193;208;139799;-64
2023/12/03 11:32:27;;;;;;;54.00;31.90;;;;;;;1.36;68.51;99223.15;234238;213;138160;-65
2023/12/03 11:37:43;;;;;;;16.20;9.20;;;;;;;1.44;68.26;99232.08;234199;213;147512;-69
2023/12/03 11:42:49;;;;;;;13.40;8.70;;;;;;;1.39;68.21;99240.73;233701;213;138895;-64
2023/12/03 11:48:14;;;;;;;16.70;9.00;;;;;;;1.30;68.42;99244.44;234030;213;137914;-66
2023/12/03 11:53:30;;;;;;;257.90;149.10;;;;;;;1.24;68.98;99248.21;234302;216;150007;-67
2023/12/03 11:58:33;;;;;;;15.60;9.10;;;;;;;1.32;68.94;99251.38;234232;214;139787;-67
2023/12/03 12:03:36;;;;;;;13.40;8.50;;;;;;;1.30;69.21;99254.41;234239;209;138643;-63
2023/12/03 12:08:40;;;;;;;12.60;7.60;;;;;;;1.32;68.79;99256.45;234142;212;148509;-64
2023/12/03 12:13:45;;;;;;;175.00;106.70;;;;;;;1.29;69.15;99259.49;234124;212;138984;-60
2023/12/03 12:18:48;;;;;;;12.80;8.70;;;;;;;1.39;68.84;99262.60;234117;209;138018;-65
2023/12/03 12:23:52;;;;;;;12.90;7.80;;;;;;;1.32;68.43;99266.23;234354;213;147433;-66
2023/12/03 12:28:56;;;;;;;11.30;7.10;;;;;;;1.30;68.37;99266.27;234104;213;141967;-62
2023/12/03 12:33:59;;;;;;;13.30;7.70;;;;;;;1.27;68.29;99269.67;234143;213;136389;-65
2023/12/03 12:39:03;;;;;;;10.40;7.40;;;;;;;1.21;68.61;99274.51;234255;214;147710;-64
2023/12/03 12:44:06;;;;;;;12.70;7.40;;;;;;;1.10;68.88;99280.33;234197;208;153041;-63
2023/12/03 12:49:16;;;;;;;44.80;26.80;;;;;;;1.16;70.44;99290.67;234242;215;136991;-63
2023/12/03 12:54:19;;;;;;;14.10;8.50;;;;;;;1.28;69.41;99300.91;234216;213;147286;-64
2023/12/03 12:59:23;;;;;;;9.60;6.40;;;;;;;1.24;68.79;99302.42;234197;214;138947;-66
2023/12/03 13:04:26;;;;;;;13.60;7.90;;;;;;;1.27;68.39;99311.94;234032;208;138093;-63
2023/12/03 13:09:30;;;;;;;12.10;8.00;;;;;;;1.29;68.25;99319.08;234226;214;148681;-65
2023/12/03 13:14:35;;;;;;;11.50;7.80;;;;;;;1.29;68.05;99321.52;234207;213;230819;-59
2023/12/03 13:19:39;;;;;;;13.80;8.30;;;;;;;1.25;67.57;99326.86;234210;215;136455;-61
2023/12/03 13:24:42;;;;;;;13.20;8.30;;;;;;;1.26;67.49;99331.20;234197;214;148738;-60
2023/12/03 13:29:46;;;;;;;14.20;8.00;;;;;;;1.14;67.29;99339.11;234326;214;139598;-59
2023/12/03 13:34:50;;;;;;;15.00;8.40;;;;;;;1.09;67.00;99349.35;234087;212;137675;-59
2023/12/03 13:39:54;;;;;;;13.30;8.60;;;;;;;1.09;67.17;99350.58;234095;214;147570;-60
2023/12/03 13:44:58;;;;;;;12.90;8.10;;;;;;;1.07;67.06;99355.85;233952;208;140087;-58
2023/12/03 13:50:03;;;;;;;17.10;10.90;;;;;;;1.06;67.69;99366.17;233670;213;136561;-61
2023/12/03 13:55:06;;;;;;;15.30;8.60;;;;;;;0.93;67.13;99373.39;234345;213;147457;-58
2023/12/03 14:00:10;;;;;;;16.30;8.80;;;;;;;0.83;67.32;99379.34;234443;213;139591;-59
2023/12/03 14:05:17;;;;;;;18.10;10.70;;;;;;;0.86;67.44;99384.69;234431;213;136445;-60
2023/12/03 14:10:29;;;;;;;18.10;12.10;;;;;;;0.97;68.22;99390.27;234304;215;147247;-59
2023/12/03 14:15:33;;;;;;;15.30;8.40;;;;;;;0.98;67.01;99398.13;234286;212;139488;-59
2023/12/03 14:20:36;;;;;;;14.50;9.30;;;;;;;0.93;66.25;99412.86;234386;208;136779;-59
2023/12/03 14:25:39;;;;;;;14.60;8.60;;;;;;;0.86;66.53;99422.23;234206;213;147595;-58
2023/12/03 14:30:43;;;;;;;18.00;10.00;;;;;;;0.88;66.43;99431.29;234240;213;139113;-58
2023/12/03 14:35:49;;;;;;;15.70;10.10;;;;;;;0.82;66.34;99436.13;233940;213;136717;-57
2023/12/03 14:40:54;;;;;;;15.30;9.60;;;;;;;0.77;66.54;99439.17;233667;212;147915;-60
2023/12/03 14:45:58;;;;;;;;;;;;;;;0.72;66.59;99449.91;233752;213;140228;-59
2023/12/03 14:51:02;;;;;;;14.80;9.40;;;;;;;0.62;66.71;99447.61;233989;214;132079;-59
2023/12/03 14:56:06;;;;;;;17.20;10.20;;;;;;;0.47;66.88;99454.80;234327;212;147769;-58
2023/12/03 15:01:09;;;;;;;270.00;159.60;;;;;;;0.36;67.97;99464.02;234363;213;139182;-58
2023/12/03 15:06:12;;;;;;;21.20;12.50;;;;;;;0.60;70.48;99462.64;234439;215;137840;-61
2023/12/03 15:11:16;;;;;;;20.60;8.70;;;;;;;0.52;66.66;99475.84;234354;212;148299;-59
2023/12/03 15:16:19;;;;;;;11.40;7.60;;;;;;;0.40;65.94;99482.64;234276;213;139485;-61
2023/12/03 15:21:23;;;;;;;16.20;8.90;;;;;;;0.36;65.04;99486.89;234274;212;136547;-59
2023/12/03 15:26:26;;;;;;;14.30;8.20;;;;;;;0.31;65.00;99498.66;234265;214;148022;-61
2023/12/03 15:31:30;;;;;;;17.10;8.80;;;;;;;0.26;64.85;99505.01;234333;212;139872;-61
2023/12/03 15:36:33;;;;;;;14.90;8.90;;;;;;;0.19;64.72;99513.11;234399;214;137295;-61
2023/12/03 15:41:36;;;;;;;16.30;8.70;;;;;;;0.09;64.43;99519.00;234417;214;147348;-61
2023/12/03 15:46:40;;;;;;;15.20;8.80;;;;;;;-0.07;64.62;99521.80;234340;215;138851;-59
2023/12/03 15:51:43;;;;;;;15.10;8.60;;;;;;;-0.19;65.14;99532.20;234339;213;136962;-60
2023/12/03 15:56:46;;;;;;;15.00;8.30;;;;;;;-0.21;65.51;99541.14;234359;212;147536;-60
2023/12/03 16:01:51;;;;;;;17.70;9.70;;;;;;;-0.17;65.68;99548.42;234328;213;139206;-57
2023/12/03 16:06:56;;;;;;;16.70;10.00;;;;;;;-0.14;66.08;99551.52;234000;215;136815;-59
2023/12/03 16:12:00;;;;;;;15.80;9.80;;;;;;;-0.09;66.12;99558.44;234549;215;147612;-59
2023/12/03 16:17:03;;;;;;;18.20;10.00;;;;;;;-0.03;66.26;99559.77;234331;213;138731;-60
2023/12/03 16:22:18;;;;;;;17.60;9.90;;;;;;;0.08;66.21;99564.19;234382;211;137901;-59
2023/12/03 16:27:21;;;;;;;18.80;10.80;;;;;;;0.29;65.88;99570.05;234355;215;147560;-61
2023/12/03 16:32:24;;;;;;;18.90;10.80;;;;;;;0.43;65.69;99574.58;234282;213;138743;-60
2023/12/03 16:37:27;;;;;;;17.70;11.10;;;;;;;0.54;65.39;99575.16;234346;215;136571;-61
2023/12/03 16:42:30;;;;;;;17.20;11.00;;;;;;;0.59;64.99;99577.88;233492;212;147518;-60
2023/12/03 16:47:33;;;;;;;19.20;11.20;;;;;;;0.57;65.07;99580.17;234391;213;139284;-57
2023/12/03 16:52:37;;;;;;;20.90;12.70;;;;;;;0.54;65.06;99582.31;234227;213;137347;-58
2023/12/03 16:57:41;;;;;;;18.40;11.20;;;;;;;0.46;65.29;99583.11;233768;215;148551;-58
2023/12/03 17:02:44;;;;;;;87.00;56.40;;;;;;;0.36;65.45;99588.48;234305;209;138958;-55
2023/12/03 17:07:48;;;;;;;100.60;61.90;;;;;;;0.44;66.77;99592.02;233541;213;138289;-58
2023/12/03 17:12:51;;;;;;;27.80;14.80;;;;;;;0.67;67.17;99591.39;234209;214;147497;-56
2023/12/03 17:18:01;;;;;;;21.20;12.60;;;;;;;0.51;65.13;99596.48;234057;215;141407;-53
2023/12/03 17:23:07;;;;;;;23.90;12.80;;;;;;;0.30;65.22;99608.77;233603;212;137145;-59
2023/12/03 17:28:10;;;;;;;21.50;12.70;;;;;;;0.19;65.64;99615.02;233460;213;147682;-57
2023/12/03 17:33:15;;;;;;;25.80;14.00;;;;;;;0.10;66.00;99623.64;234034;209;140215;-59
2023/12/03 17:38:18;;;;;;;24.10;14.10;;;;;;;0.09;65.94;99632.73;233572;212;137147;-58
2023/12/03 17:43:22;;;;;;;24.90;14.50;;;;;;;0.03;65.73;99634.20;233666;213;148083;-59
2023/12/03 17:48:26;;;;;;;27.30;15.20;;;;;;;-0.10;66.02;99629.77;234276;213;141145;-61
2023/12/03 17:53:30;;;;;;;25.00;14.70;;;;;;;-0.22;66.28;99641.39;234418;213;137088;-61
2023/12/03 17:58:33;;;;;;;29.20;16.40;;;;;;;-0.34;66.41;99643.42;234246;212;147283;-60
2023/12/03 18:03:37;;;;;;;26.10;15.40;;;;;;;-0.36;66.44;99641.86;233835;213;138782;-59
2023/12/03 18:08:40;;;;;;;25.60;14.20;;;;;;;-0.35;66.36;99642.72;234289;214;136875;-61
2023/12/03 18:13:44;;;;;;;26.20;14.40;;;;;;;-0.34;66.29;99638.19;233694;213;147348;-60
2023/12/03 18:18:47;;;;;;;24.20;14.50;;;;;;;-0.35;66.04;99639.05;233849;208;138799;-66
2023/12/03 18:23:51;;;;;;;26.40;14.60;;;;;;;-0.37;65.98;99640.30;233966;208;138982;-53
2023/12/03 18:28:54;;;;;;;37.00;21.20;;;;;;;-0.27;68.92;99643.00;234169;212;149543;-58
2023/12/03 18:33:57;;;;;;;29.50;17.10;;;;;;;-0.05;66.43;99645.95;234095;212;138859;-57
2023/12/03 18:39:01;;;;;;;30.30;17.80;;;;;;;-0.18;65.94;99647.81;234244;214;136880;-58
2023/12/03 18:44:05;;;;;;;29.20;16.40;;;;;;;-0.25;65.71;99643.86;234247;213;149303;-58
2023/12/03 18:49:08;;;;;;;24.10;14.40;;;;;;;-0.33;65.74;99648.11;233700;213;138003;-59
2023/12/03 18:54:11;;;;;;;27.50;15.60;;;;;;;-0.37;65.57;99639.27;233308;213;137123;-57
2023/12/03 18:59:15;;;;;;;29.40;15.50;;;;;;;-0.38;65.52;99634.38;233872;213;150318;-59
2023/12/03 19:04:18;;;;;;;31.60;16.60;;;;;;;-0.37;65.67;99634.55;233847;212;138610;-59
2023/12/03 19:09:22;;;;;;;29.90;16.20;;;;;;;-0.41;65.85;99640.85;234146;212;137738;-60
2023/12/03 19:14:25;;;;;;;28.20;15.90;;;;;;;-0.47;65.70;99647.70;234110;214;148713;-57
2023/12/03 19:19:29;;;;;;;31.90;16.30;;;;;;;-0.54;65.73;99650.02;234164;214;138989;-57
2023/12/03 19:24:33;;;;;;;33.60;17.20;;;;;;;-0.59;65.61;99650.41;234241;214;137797;-58
2023/12/03 19:29:37;;;;;;;29.20;17.10;;;;;;;-0.61;65.58;99650.25;234253;213;147984;-58
2023/12/03 19:34:41;;;;;;;296.30;175.90;;;;;;;-0.51;68.04;99646.86;234117;212;138850;-54
2023/12/03 19:39:44;;;;;;;31.80;18.10;;;;;;;0.08;70.47;99645.98;233317;213;137993;-55
2023/12/03 19:44:50;;;;;;;29.10;16.00;;;;;;;0.61;68.33;99646.98;234116;214;148745;-54
2023/12/03 19:49:53;;;;;;;29.60;16.10;;;;;;;0.53;63.51;99651.11;234184;212;139422;-55
2023/12/03 19:54:57;;;;;;;26.20;15.30;;;;;;;0.23;62.97;99654.22;234301;214;137052;-57
2023/12/03 20:00:01;;;;;;;28.00;15.60;;;;;;;0.03;62.98;99655.64;234104;208;147880;-52
2023/12/03 20:05:16;;;;;;;27.10;15.40;;;;;;;-0.13;63.07;99661.20;234025;213;138751;-53
2023/12/03 20:10:20;;;;;;;27.50;14.90;;;;;;;-0.29;63.07;99660.80;234171;214;138868;-54
2023/12/03 20:15:24;;;;;;;27.00;15.20;;;;;;;-0.41;63.14;99662.13;234192;213;148967;-54
2023/12/03 20:20:43;;;;;;;28.50;15.10;;;;;;;-0.53;63.23;99659.42;234276;213;139476;-55
2023/12/03 20:25:47;;;;;;;27.70;15.00;;;;;;;-0.68;63.34;99661.09;234102;209;137148;-54
2023/12/03 20:30:50;;;;;;;26.30;14.00;;;;;;;-0.77;63.49;99661.15;233641;208;148833;-54
2023/12/03 20:35:54;;;;;;;24.90;14.10;;;;;;;-0.86;63.46;99663.64;234081;213;139403;-56
2023/12/03 20:40:57;;;;;;;27.20;14.60;;;;;;;-0.95;63.55;99666.48;234032;208;137017;-58
2023/12/03 20:46:03;;;;;;;26.70;14.80;;;;;;;-1.02;63.70;99668.80;233653;212;147533;-54
2023/12/03 20:51:11;;;;;;;28.30;14.80;;;;;;;-1.15;63.84;99673.36;233673;213;140222;-56
2023/12/03 20:56:14;;;;;;;28.00;15.40;;;;;;;-1.25;64.08;99682.30;233930;214;139264;-57
2023/12/03 21:01:17;;;;;;;28.20;14.60;;;;;;;-1.27;64.37;99679.16;234203;213;147572;-55
2023/12/03 21:06:20;;;;;;;26.70;15.20;;;;;;;-1.25;64.26;99675.86;234013;213;139427;-56
2023/12/03 21:11:24;;;;;;;26.30;14.20;;;;;;;-1.24;64.23;99677.77;234443;212;137935;-55
2023/12/03 21:16:27;;;;;;;25.50;14.60;;;;;;;-1.24;64.45;99675.31;233990;213;148843;-55
2023/12/03 21:21:30;;;;;;;24.40;14.50;;;;;;;-1.18;64.22;99675.82;234206;212;138864;-54
2023/12/03 21:26:33;;;;;;;28.20;15.60;;;;;;;-1.14;64.23;99672.15;234281;212;137021;-55
2023/12/03 21:31:36;;;;;;;25.60;14.40;;;;;;;-1.15;64.11;99674.60;234292;215;148180;-54
2023/12/03 21:36:40;;;;;;;27.70;15.50;;;;;;;-1.17;64.01;99670.95;234329;215;138900;-55
2023/12/03 21:41:43;;;;;;;25.20;14.70;;;;;;;-1.14;64.07;99663.96;234416;212;137847;-55
2023/12/03 21:46:46;;;;;;;27.30;14.60;;;;;;;-1.14;64.17;99661.70;233278;208;148389;-60
2023/12/03 21:51:49;;;;;;;29.20;15.20;;;;;;;-1.13;64.08;99668.84;234345;208;140129;-57
2023/12/03 21:56:53;;;;;;;28.20;15.30;;;;;;;-1.11;64.10;99671.27;233421;212;136836;-55
2023/12/03 22:01:56;;;;;;;27.60;15.00;;;;;;;-1.11;64.00;99670.23;233486;213;149133;-57
2023/12/03 22:07:00;;;;;;;25.90;14.60;;;;;;;-1.13;64.05;99671.27;234084;209;138354;-55
2023/12/03 22:12:03;;;;;;;26.20;14.80;;;;;;;-1.11;64.06;99671.45;234571;211;139068;-56
2023/12/03 22:17:07;;;;;;;31.50;16.70;;;;;;;-1.07;63.57;99671.59;234476;212;148318;-55
2023/12/03 22:22:10;;;;;;;34.10;16.50;;;;;;;-1.01;63.31;99672.44;234407;213;139294;-54
2023/12/03 22:27:13;;;;;;;28.80;15.60;;;;;;;-0.95;63.19;99675.36;233350;212;137240;-54
2023/12/03 22:32:17;;;;;;;34.90;16.60;;;;;;;-0.89;62.78;99677.95;234089;212;147563;-56
2023/12/03 22:37:20;;;;;;;30.00;16.30;;;;;;;-0.82;62.68;99679.98;233480;207;140165;-56
2023/12/03 22:42:24;;;;;;;29.10;16.20;;;;;;;-0.80;62.71;99683.11;233909;212;137089;-52
2023/12/03 22:47:27;;;;;;;34.10;17.60;;;;;;;-0.79;62.61;99682.06;234369;208;148353;-57
2023/12/03 22:52:31;;;;;;;31.50;17.40;;;;;;;-0.78;62.60;99682.05;233842;212;139697;-53
2023/12/03 22:57:34;;;;;;;34.80;17.80;;;;;;;-0.79;62.72;99680.49;234606;212;137863;-52
2023/12/03 23:02:38;;;;;;;30.10;16.20;;;;;;;-0.85;62.92;99682.10;234356;208;147340;-53
2023/12/03 23:07:41;;;;;;;31.50;16.60;;;;;;;-0.89;63.39;99677.59;233860;207;139865;-53
2023/12/03 23:12:44;;;;;;;30.30;17.00;;;;;;;-0.93;63.89;99676.40;234419;207;137816;-52
2023/12/03 23:17:48;;;;;;;33.60;17.60;;;;;;;-0.97;64.34;99679.55;234637;212;147504;-56